sensor_id;sensor_type;location;lat;lon;timestamp;P1;durP1;ratioP1;P2;durP2;ratioP2
78589;SDS011;67888;50.228;7.828;2023-09-19T00:01:13;4.57;;;1.73;;
78589;SDS011;67888;50.228;7.828;2023-09-19T00:06:14;6.27;;;2.20;;
78589;SDS011;67888;50.228;7.828;2023-09-19T00:11:15;6.15;;;2.22;;
78589;SDS011;67888;50.228;7.828;2023-09-19T00:16:16;6.17;;;1.80;;
78589;SDS011;67888;50.228;7.828;2023-09-19T00:21:19;5.85;;;1.85;;
78589;SDS011;67888;50.228;7.828;2023-09-19T00:26:20;6.37;;;2.10;;
78589;SDS011;67888;50.228;7.828;2023-09-19T00:31:21;4.97;;;2.10;;
78589;SDS011;67888;50.228;7.828;2023-09-19T00:36:25;4.30;;;1.70;;
78589;SDS011;67888;50.228;7.828;2023-09-19T00:41:26;4.65;;;1.92;;
78589;SDS011;67888;50.228;7.828;2023-09-19T00:46:27;6.87;;;2.13;;
78589;SDS011;67888;50.228;7.828;2023-09-19T00:51:27;6.63;;;2.10;;
78589;SDS011;67888;50.228;7.828;2023-09-19T00:56:28;6.57;;;2.27;;
78589;SDS011;67888;50.228;7.828;2023-09-19T01:01:28;7.40;;;1.87;;
78589;SDS011;67888;50.228;7.828;2023-09-19T01:06:29;5.90;;;1.87;;
78589;SDS011;67888;50.228;7.828;2023-09-19T01:11:33;6.03;;;1.73;;
78589;SDS011;67888;50.228;7.828;2023-09-19T01:22:10;5.82;;;1.90;;
78589;SDS011;67888;50.228;7.828;2023-09-19T01:32:31;6.90;;;1.67;;
78589;SDS011;67888;50.228;7.828;2023-09-19T01:37:32;6.03;;;1.77;;
78589;SDS011;67888;50.228;7.828;2023-09-19T01:47:48;3.97;;;1.53;;
78589;SDS011;67888;50.228;7.828;2023-09-19T01:52:55;6.27;;;1.70;;
78589;SDS011;67888;50.228;7.828;2023-09-19T01:58:01;8.05;;;2.38;;
78589;SDS011;67888;50.228;7.828;2023-09-19T02:03:20;6.95;;;1.70;;
78589;SDS011;67888;50.228;7.828;2023-09-19T02:08:22;4.50;;;1.50;;
78589;SDS011;67888;50.228;7.828;2023-09-19T02:13:25;4.03;;;1.60;;
78589;SDS011;67888;50.228;7.828;2023-09-19T02:18:28;5.68;;;1.80;;
78589;SDS011;67888;50.228;7.828;2023-09-19T02:23:28;6.20;;;1.60;;
78589;SDS011;67888;50.228;7.828;2023-09-19T02:28:30;6.17;;;1.57;;
78589;SDS011;67888;50.228;7.828;2023-09-19T02:33:32;6.57;;;1.60;;
78589;SDS011;67888;50.228;7.828;2023-09-19T02:38:32;4.88;;;1.50;;
78589;SDS011;67888;50.228;7.828;2023-09-19T02:43:33;5.53;;;1.47;;
78589;SDS011;67888;50.228;7.828;2023-09-19T02:48:34;6.97;;;1.80;;
78589;SDS011;67888;50.228;7.828;2023-09-19T02:53:36;4.27;;;1.63;;
78589;SDS011;67888;50.228;7.828;2023-09-19T02:58:36;6.45;;;1.52;;
78589;SDS011;67888;50.228;7.828;2023-09-19T03:03:37;5.68;;;1.60;;
78589;SDS011;67888;50.228;7.828;2023-09-19T03:08:39;7.40;;;1.57;;
78589;SDS011;67888;50.228;7.828;2023-09-19T03:13:42;5.55;;;1.63;;
78589;SDS011;67888;50.228;7.828;2023-09-19T03:18:42;5.77;;;1.70;;
78589;SDS011;67888;50.228;7.828;2023-09-19T03:23:43;6.10;;;1.60;;
78589;SDS011;67888;50.228;7.828;2023-09-19T03:28:47;5.40;;;1.40;;
78589;SDS011;67888;50.228;7.828;2023-09-19T03:33:47;5.50;;;1.80;;
78589;SDS011;67888;50.228;7.828;2023-09-19T03:38:47;5.30;;;1.70;;
78589;SDS011;67888;50.228;7.828;2023-09-19T03:43:48;5.70;;;1.67;;
78589;SDS011;67888;50.228;7.828;2023-09-19T03:48:49;6.57;;;1.85;;
78589;SDS011;67888;50.228;7.828;2023-09-19T03:53:50;4.47;;;1.48;;
78589;SDS011;67888;50.228;7.828;2023-09-19T03:58:50;5.50;;;1.80;;
78589;SDS011;67888;50.228;7.828;2023-09-19T04:03:51;5.70;;;1.40;;
78589;SDS011;67888;50.228;7.828;2023-09-19T04:08:53;8.30;;;1.83;;
78589;SDS011;67888;50.228;7.828;2023-09-19T04:13:54;5.83;;;2.00;;
78589;SDS011;67888;50.228;7.828;2023-09-19T04:18:55;5.53;;;2.03;;
78589;SDS011;67888;50.228;7.828;2023-09-19T04:23:55;6.93;;;1.77;;
78589;SDS011;67888;50.228;7.828;2023-09-19T04:28:55;5.43;;;1.40;;
78589;SDS011;67888;50.228;7.828;2023-09-19T04:33:56;6.97;;;2.10;;
78589;SDS011;67888;50.228;7.828;2023-09-19T04:38:57;7.80;;;1.80;;
78589;SDS011;67888;50.228;7.828;2023-09-19T04:43:57;8.03;;;2.33;;
78589;SDS011;67888;50.228;7.828;2023-09-19T04:48:58;6.10;;;2.10;;
78589;SDS011;67888;50.228;7.828;2023-09-19T04:53:59;6.60;;;1.77;;
78589;SDS011;67888;50.228;7.828;2023-09-19T04:58:59;5.63;;;1.80;;
78589;SDS011;67888;50.228;7.828;2023-09-19T05:04:00;6.23;;;1.73;;
78589;SDS011;67888;50.228;7.828;2023-09-19T05:09:01;5.70;;;1.93;;
78589;SDS011;67888;50.228;7.828;2023-09-19T05:14:01;8.17;;;1.80;;
78589;SDS011;67888;50.228;7.828;2023-09-19T05:19:03;5.43;;;1.55;;
78589;SDS011;67888;50.228;7.828;2023-09-19T05:24:04;6.53;;;2.07;;
78589;SDS011;67888;50.228;7.828;2023-09-19T05:29:06;5.85;;;1.92;;
78589;SDS011;67888;50.228;7.828;2023-09-19T05:34:08;4.85;;;1.67;;
78589;SDS011;67888;50.228;7.828;2023-09-19T05:39:09;4.17;;;1.63;;
78589;SDS011;67888;50.228;7.828;2023-09-19T05:44:09;8.13;;;1.90;;
78589;SDS011;67888;50.228;7.828;2023-09-19T05:49:09;8.63;;;1.70;;
78589;SDS011;67888;50.228;7.828;2023-09-19T05:54:10;8.53;;;1.90;;
78589;SDS011;67888;50.228;7.828;2023-09-19T05:59:11;7.73;;;1.70;;
78589;SDS011;67888;50.228;7.828;2023-09-19T06:04:11;7.83;;;2.10;;
78589;SDS011;67888;50.228;7.828;2023-09-19T06:09:12;6.95;;;1.85;;
78589;SDS011;67888;50.228;7.828;2023-09-19T06:14:12;9.23;;;2.03;;
78589;SDS011;67888;50.228;7.828;2023-09-19T06:19:14;9.93;;;2.03;;
78589;SDS011;67888;50.228;7.828;2023-09-19T06:24:14;6.40;;;1.90;;
78589;SDS011;67888;50.228;7.828;2023-09-19T06:29:15;8.23;;;1.88;;
78589;SDS011;67888;50.228;7.828;2023-09-19T06:34:15;5.63;;;1.77;;
78589;SDS011;67888;50.228;7.828;2023-09-19T06:39:16;6.73;;;1.60;;
78589;SDS011;67888;50.228;7.828;2023-09-19T06:44:16;6.13;;;1.80;;
78589;SDS011;67888;50.228;7.828;2023-09-19T06:49:17;5.73;;;1.67;;
78589;SDS011;67888;50.228;7.828;2023-09-19T06:54:18;8.32;;;1.83;;
78589;SDS011;67888;50.228;7.828;2023-09-19T06:59:18;6.90;;;2.00;;
78589;SDS011;67888;50.228;7.828;2023-09-19T07:04:18;13.60;;;1.73;;
78589;SDS011;67888;50.228;7.828;2023-09-19T07:09:22;7.60;;;1.95;;
78589;SDS011;67888;50.228;7.828;2023-09-19T07:14:22;4.77;;;1.73;;
78589;SDS011;67888;50.228;7.828;2023-09-19T07:19:23;6.20;;;1.97;;
78589;SDS011;67888;50.228;7.828;2023-09-19T07:24:23;10.23;;;2.50;;
78589;SDS011;67888;50.228;7.828;2023-09-19T07:29:24;8.13;;;2.20;;
78589;SDS011;67888;50.228;7.828;2023-09-19T07:34:26;6.90;;;1.98;;
78589;SDS011;67888;50.228;7.828;2023-09-19T07:39:26;8.80;;;2.40;;
78589;SDS011;67888;50.228;7.828;2023-09-19T07:44:27;8.50;;;1.83;;
78589;SDS011;67888;50.228;7.828;2023-09-19T07:49:27;9.83;;;2.00;;
78589;SDS011;67888;50.228;7.828;2023-09-19T07:54:27;10.40;;;2.27;;
78589;SDS011;67888;50.228;7.828;2023-09-19T07:59:30;7.38;;;2.03;;
78589;SDS011;67888;50.228;7.828;2023-09-19T08:04:30;12.97;;;2.50;;
78589;SDS011;67888;50.228;7.828;2023-09-19T08:09:34;8.27;;;2.23;;
78589;SDS011;67888;50.228;7.828;2023-09-19T08:14:34;8.87;;;2.30;;
78589;SDS011;67888;50.228;7.828;2023-09-19T08:19:35;8.23;;;1.90;;
78589;SDS011;67888;50.228;7.828;2023-09-19T08:24:36;5.13;;;1.75;;
78589;SDS011;67888;50.228;7.828;2023-09-19T08:29:36;8.53;;;1.83;;
78589;SDS011;67888;50.228;7.828;2023-09-19T08:34:37;8.93;;;1.93;;
78589;SDS011;67888;50.228;7.828;2023-09-19T08:39:38;6.70;;;1.85;;
78589;SDS011;67888;50.228;7.828;2023-09-19T08:44:39;7.90;;;1.80;;
78589;SDS011;67888;50.228;7.828;2023-09-19T08:54:59;10.03;;;2.30;;
78589;SDS011;67888;50.228;7.828;2023-09-19T09:00:04;10.65;;;2.67;;
78589;SDS011;67888;50.228;7.828;2023-09-19T09:05:10;6.72;;;1.92;;
78589;SDS011;67888;50.228;7.828;2023-09-19T09:10:12;9.37;;;2.30;;
78589;SDS011;67888;50.228;7.828;2023-09-19T09:15:13;10.18;;;2.30;;
78589;SDS011;67888;50.228;7.828;2023-09-19T09:20:17;12.07;;;2.57;;
78589;SDS011;67888;50.228;7.828;2023-09-19T09:25:18;8.27;;;2.30;;
78589;SDS011;67888;50.228;7.828;2023-09-19T09:30:32;9.83;;;1.93;;
78589;SDS011;67888;50.228;7.828;2023-09-19T09:35:34;7.78;;;1.90;;
78589;SDS011;67888;50.228;7.828;2023-09-19T09:40:45;7.20;;;2.28;;
78589;SDS011;67888;50.228;7.828;2023-09-19T09:45:47;11.33;;;2.43;;
78589;SDS011;67888;50.228;7.828;2023-09-19T09:51:30;11.10;;;3.00;;
78589;SDS011;67888;50.228;7.828;2023-09-19T09:56:31;8.23;;;2.22;;
78589;SDS011;67888;50.228;7.828;2023-09-19T10:01:46;8.10;;;1.92;;
78589;SDS011;67888;50.228;7.828;2023-09-19T10:06:50;10.40;;;2.10;;
78589;SDS011;67888;50.228;7.828;2023-09-19T10:12:04;9.75;;;2.40;;
78589;SDS011;67888;50.228;7.828;2023-09-19T10:17:09;10.55;;;2.25;;
78589;SDS011;67888;50.228;7.828;2023-09-19T10:22:10;10.27;;;2.20;;
78589;SDS011;67888;50.228;7.828;2023-09-19T10:27:13;7.75;;;2.22;;
78589;SDS011;67888;50.228;7.828;2023-09-19T10:32:20;12.48;;;2.50;;
78589;SDS011;67888;50.228;7.828;2023-09-19T10:37:23;10.37;;;2.50;;
78589;SDS011;67888;50.228;7.828;2023-09-19T10:42:25;8.87;;;2.63;;
78589;SDS011;67888;50.228;7.828;2023-09-19T10:47:29;7.95;;;2.75;;
78589;SDS011;67888;50.228;7.828;2023-09-19T10:52:31;8.20;;;2.22;;
78589;SDS011;67888;50.228;7.828;2023-09-19T10:57:34;9.07;;;2.10;;
78589;SDS011;67888;50.228;7.828;2023-09-19T11:02:36;8.85;;;2.15;;
78589;SDS011;67888;50.228;7.828;2023-09-19T11:13:23;11.05;;;2.65;;
78589;SDS011;67888;50.228;7.828;2023-09-19T11:23:41;7.30;;;2.10;;
78589;SDS011;67888;50.228;7.828;2023-09-19T11:28:41;8.83;;;2.30;;
78589;SDS011;67888;50.228;7.828;2023-09-19T11:33:42;8.63;;;2.33;;
78589;SDS011;67888;50.228;7.828;2023-09-19T11:48:51;8.18;;;2.17;;
78589;SDS011;67888;50.228;7.828;2023-09-19T11:53:52;7.97;;;2.10;;
78589;SDS011;67888;50.228;7.828;2023-09-19T11:58:59;7.03;;;2.17;;
78589;SDS011;67888;50.228;7.828;2023-09-19T12:04:00;7.13;;;2.40;;
78589;SDS011;67888;50.228;7.828;2023-09-19T12:09:04;7.30;;;2.17;;
78589;SDS011;67888;50.228;7.828;2023-09-19T12:14:10;7.25;;;2.47;;
78589;SDS011;67888;50.228;7.828;2023-09-19T12:19:17;6.37;;;2.10;;
78589;SDS011;67888;50.228;7.828;2023-09-19T12:24:22;5.57;;;1.73;;
78589;SDS011;67888;50.228;7.828;2023-09-19T12:29:22;7.40;;;2.00;;
78589;SDS011;67888;50.228;7.828;2023-09-19T12:34:30;9.80;;;1.97;;
78589;SDS011;67888;50.228;7.828;2023-09-19T12:39:34;7.30;;;2.22;;
78589;SDS011;67888;50.228;7.828;2023-09-19T12:44:36;8.27;;;2.23;;
78589;SDS011;67888;50.228;7.828;2023-09-19T12:50:04;7.25;;;2.35;;
78589;SDS011;67888;50.228;7.828;2023-09-19T12:55:20;7.45;;;2.03;;
78589;SDS011;67888;50.228;7.828;2023-09-19T13:00:40;7.43;;;1.90;;
78589;SDS011;67888;50.228;7.828;2023-09-19T13:05:52;8.73;;;1.70;;
78589;SDS011;67888;50.228;7.828;2023-09-19T13:11:11;9.27;;;2.10;;
78589;SDS011;67888;50.228;7.828;2023-09-19T13:16:13;5.40;;;2.05;;
78589;SDS011;67888;50.228;7.828;2023-09-19T13:21:30;7.73;;;2.13;;
78589;SDS011;67888;50.228;7.828;2023-09-19T13:26:42;5.45;;;1.65;;
78589;SDS011;67888;50.228;7.828;2023-09-19T13:31:49;5.80;;;1.57;;
78589;SDS011;67888;50.228;7.828;2023-09-19T13:36:52;9.32;;;2.40;;
78589;SDS011;67888;50.228;7.828;2023-09-19T13:41:54;6.90;;;2.50;;
78589;SDS011;67888;50.228;7.828;2023-09-19T13:46:55;8.17;;;2.90;;
78589;SDS011;67888;50.228;7.828;2023-09-19T13:51:56;7.88;;;3.00;;
78589;SDS011;67888;50.228;7.828;2023-09-19T13:56:58;6.00;;;2.80;;
78589;SDS011;67888;50.228;7.828;2023-09-19T14:01:58;7.10;;;3.20;;
78589;SDS011;67888;50.228;7.828;2023-09-19T14:06:58;7.13;;;3.37;;
78589;SDS011;67888;50.228;7.828;2023-09-19T14:12:00;7.43;;;3.57;;
78589;SDS011;67888;50.228;7.828;2023-09-19T14:17:01;8.25;;;3.78;;
78589;SDS011;67888;50.228;7.828;2023-09-19T14:22:02;8.00;;;3.67;;
78589;SDS011;67888;50.228;7.828;2023-09-19T14:27:07;6.77;;;3.40;;
78589;SDS011;67888;50.228;7.828;2023-09-19T14:32:09;7.10;;;3.87;;
78589;SDS011;67888;50.228;7.828;2023-09-19T14:37:11;7.53;;;3.67;;
78589;SDS011;67888;50.228;7.828;2023-09-19T14:42:11;7.03;;;3.93;;
78589;SDS011;67888;50.228;7.828;2023-09-19T14:47:12;7.63;;;4.30;;
78589;SDS011;67888;50.228;7.828;2023-09-19T14:52:13;9.03;;;4.20;;
78589;SDS011;67888;50.228;7.828;2023-09-19T14:57:15;7.82;;;4.22;;
78589;SDS011;67888;50.228;7.828;2023-09-19T15:02:16;6.20;;;2.90;;
78589;SDS011;67888;50.228;7.828;2023-09-19T15:07:17;7.77;;;3.73;;
78589;SDS011;67888;50.228;7.828;2023-09-19T15:12:17;11.87;;;3.70;;
78589;SDS011;67888;50.228;7.828;2023-09-19T15:17:18;6.50;;;3.30;;
78589;SDS011;67888;50.228;7.828;2023-09-19T15:22:19;7.67;;;4.03;;
78589;SDS011;67888;50.228;7.828;2023-09-19T15:27:20;7.97;;;4.60;;
78589;SDS011;67888;50.228;7.828;2023-09-19T15:32:21;7.40;;;3.60;;
78589;SDS011;67888;50.228;7.828;2023-09-19T15:37:21;6.37;;;3.00;;
78589;SDS011;67888;50.228;7.828;2023-09-19T15:42:22;5.43;;;2.07;;
78589;SDS011;67888;50.228;7.828;2023-09-19T15:47:22;8.40;;;2.70;;
78589;SDS011;67888;50.228;7.828;2023-09-19T15:52:23;6.33;;;2.97;;
78589;SDS011;67888;50.228;7.828;2023-09-19T15:57:26;7.85;;;3.90;;
78589;SDS011;67888;50.228;7.828;2023-09-19T16:02:28;7.90;;;3.53;;
78589;SDS011;67888;50.228;7.828;2023-09-19T16:07:28;6.90;;;4.30;;
78589;SDS011;67888;50.228;7.828;2023-09-19T16:12:30;6.82;;;4.10;;
78589;SDS011;67888;50.228;7.828;2023-09-19T16:17:31;6.82;;;3.90;;
78589;SDS011;67888;50.228;7.828;2023-09-19T16:22:31;6.60;;;2.70;;
78589;SDS011;67888;50.228;7.828;2023-09-19T16:27:32;6.90;;;2.20;;
78589;SDS011;67888;50.228;7.828;2023-09-19T16:32:32;8.60;;;2.00;;
78589;SDS011;67888;50.228;7.828;2023-09-19T16:37:33;6.27;;;3.50;;
78589;SDS011;67888;50.228;7.828;2023-09-19T16:42:33;7.07;;;3.60;;
78589;SDS011;67888;50.228;7.828;2023-09-19T16:47:34;5.23;;;3.00;;
78589;SDS011;67888;50.228;7.828;2023-09-19T16:52:34;5.70;;;1.58;;
78589;SDS011;67888;50.228;7.828;2023-09-19T16:57:35;6.57;;;1.40;;
78589;SDS011;67888;50.228;7.828;2023-09-19T17:02:35;5.83;;;1.47;;
78589;SDS011;67888;50.228;7.828;2023-09-19T17:07:36;4.90;;;1.27;;
78589;SDS011;67888;50.228;7.828;2023-09-19T17:12:38;5.07;;;1.50;;
78589;SDS011;67888;50.228;7.828;2023-09-19T17:17:40;7.13;;;1.52;;
78589;SDS011;67888;50.228;7.828;2023-09-19T17:22:41;5.07;;;1.25;;
78589;SDS011;67888;50.228;7.828;2023-09-19T17:27:42;5.60;;;1.70;;
78589;SDS011;67888;50.228;7.828;2023-09-19T17:32:43;5.15;;;1.30;;
78589;SDS011;67888;50.228;7.828;2023-09-19T17:37:44;5.23;;;1.60;;
78589;SDS011;67888;50.228;7.828;2023-09-19T17:42:45;5.43;;;1.37;;
78589;SDS011;67888;50.228;7.828;2023-09-19T17:47:45;4.57;;;1.50;;
78589;SDS011;67888;50.228;7.828;2023-09-19T17:52:46;4.57;;;1.40;;
78589;SDS011;67888;50.228;7.828;2023-09-19T17:57:47;4.83;;;1.70;;
78589;SDS011;67888;50.228;7.828;2023-09-19T18:02:48;8.80;;;1.55;;
78589;SDS011;67888;50.228;7.828;2023-09-19T18:07:48;5.90;;;1.60;;
78589;SDS011;67888;50.228;7.828;2023-09-19T18:12:49;4.70;;;1.73;;
78589;SDS011;67888;50.228;7.828;2023-09-19T18:17:51;5.70;;;1.38;;
78589;SDS011;67888;50.228;7.828;2023-09-19T18:22:52;6.45;;;1.50;;
78589;SDS011;67888;50.228;7.828;2023-09-19T18:27:54;4.20;;;1.37;;
78589;SDS011;67888;50.228;7.828;2023-09-19T18:32:54;3.70;;;1.23;;
78589;SDS011;67888;50.228;7.828;2023-09-19T18:37:54;5.17;;;1.40;;
78589;SDS011;67888;50.228;7.828;2023-09-19T18:42:55;4.73;;;1.20;;
78589;SDS011;67888;50.228;7.828;2023-09-19T18:47:56;6.73;;;1.40;;
78589;SDS011;67888;50.228;7.828;2023-09-19T18:52:56;6.43;;;1.70;;
78589;SDS011;67888;50.228;7.828;2023-09-19T18:57:56;5.07;;;1.70;;
78589;SDS011;67888;50.228;7.828;2023-09-19T19:02:58;5.70;;;1.65;;
78589;SDS011;67888;50.228;7.828;2023-09-19T19:08:00;5.30;;;1.77;;
78589;SDS011;67888;50.228;7.828;2023-09-19T19:13:01;6.93;;;1.50;;
78589;SDS011;67888;50.228;7.828;2023-09-19T19:18:01;6.20;;;1.40;;
78589;SDS011;67888;50.228;7.828;2023-09-19T19:23:02;4.33;;;1.30;;
78589;SDS011;67888;50.228;7.828;2023-09-19T19:28:04;5.27;;;1.60;;
78589;SDS011;67888;50.228;7.828;2023-09-19T19:33:06;4.03;;;1.60;;
78589;SDS011;67888;50.228;7.828;2023-09-19T19:38:10;5.47;;;1.50;;
78589;SDS011;67888;50.228;7.828;2023-09-19T19:43:10;4.50;;;1.50;;
78589;SDS011;67888;50.228;7.828;2023-09-19T19:48:11;4.67;;;1.40;;
78589;SDS011;67888;50.228;7.828;2023-09-19T19:53:12;5.10;;;1.52;;
78589;SDS011;67888;50.228;7.828;2023-09-19T19:58:12;5.60;;;1.67;;
78589;SDS011;67888;50.228;7.828;2023-09-19T20:03:15;5.93;;;1.90;;
78589;SDS011;67888;50.228;7.828;2023-09-19T20:08:17;3.67;;;1.50;;
78589;SDS011;67888;50.228;7.828;2023-09-19T20:13:17;5.77;;;1.60;;
78589;SDS011;67888;50.228;7.828;2023-09-19T20:18:18;6.23;;;1.93;;
78589;SDS011;67888;50.228;7.828;2023-09-19T20:23:19;5.25;;;1.73;;
78589;SDS011;67888;50.228;7.828;2023-09-19T20:28:20;6.93;;;1.77;;
78589;SDS011;67888;50.228;7.828;2023-09-19T20:33:22;5.33;;;1.50;;
78589;SDS011;67888;50.228;7.828;2023-09-19T20:38:23;6.53;;;1.93;;
78589;SDS011;67888;50.228;7.828;2023-09-19T20:43:24;6.90;;;2.13;;
78589;SDS011;67888;50.228;7.828;2023-09-19T20:48:24;5.43;;;1.60;;
78589;SDS011;67888;50.228;7.828;2023-09-19T20:53:26;6.90;;;1.55;;
78589;SDS011;67888;50.228;7.828;2023-09-19T20:58:27;4.80;;;1.60;;
78589;SDS011;67888;50.228;7.828;2023-09-19T21:03:27;5.80;;;1.93;;
78589;SDS011;67888;50.228;7.828;2023-09-19T21:08:28;4.88;;;1.80;;
78589;SDS011;67888;50.228;7.828;2023-09-19T21:13:29;5.50;;;2.03;;
78589;SDS011;67888;50.228;7.828;2023-09-19T21:18:29;5.60;;;1.70;;
78589;SDS011;67888;50.228;7.828;2023-09-19T21:23:30;5.10;;;1.50;;
78589;SDS011;67888;50.228;7.828;2023-09-19T21:28:31;5.07;;;1.80;;
78589;SDS011;67888;50.228;7.828;2023-09-19T21:33:35;7.93;;;1.88;;
78589;SDS011;67888;50.228;7.828;2023-09-19T21:38:38;5.47;;;1.70;;
78589;SDS011;67888;50.228;7.828;2023-09-19T21:43:39;5.80;;;1.60;;
78589;SDS011;67888;50.228;7.828;2023-09-19T21:48:40;7.13;;;1.75;;
78589;SDS011;67888;50.228;7.828;2023-09-19T21:53:40;7.60;;;1.60;;
78589;SDS011;67888;50.228;7.828;2023-09-19T21:58:42;5.63;;;1.73;;
78589;SDS011;67888;50.228;7.828;2023-09-19T22:03:43;7.45;;;1.80;;
78589;SDS011;67888;50.228;7.828;2023-09-19T22:08:46;4.95;;;1.80;;
78589;SDS011;67888;50.228;7.828;2023-09-19T22:13:49;6.47;;;2.10;;
78589;SDS011;67888;50.228;7.828;2023-09-19T22:18:51;5.53;;;1.90;;
78589;SDS011;67888;50.228;7.828;2023-09-19T22:23:51;4.82;;;2.20;;
78589;SDS011;67888;50.228;7.828;2023-09-19T22:28:55;6.60;;;1.67;;
78589;SDS011;67888;50.228;7.828;2023-09-19T22:33:56;5.80;;;1.70;;
78589;SDS011;67888;50.228;7.828;2023-09-19T22:38:57;5.47;;;1.80;;
78589;SDS011;67888;50.228;7.828;2023-09-19T22:44:01;8.05;;;2.20;;
78589;SDS011;67888;50.228;7.828;2023-09-19T22:49:05;4.55;;;1.90;;
78589;SDS011;67888;50.228;7.828;2023-09-19T22:54:16;5.97;;;1.87;;
78589;SDS011;67888;50.228;7.828;2023-09-19T22:59:24;6.43;;;1.55;;
78589;SDS011;67888;50.228;7.828;2023-09-19T23:04:25;4.77;;;1.70;;
78589;SDS011;67888;50.228;7.828;2023-09-19T23:09:27;6.35;;;1.73;;
78589;SDS011;67888;50.228;7.828;2023-09-19T23:14:28;4.32;;;1.40;;
78589;SDS011;67888;50.228;7.828;2023-09-19T23:19:41;5.63;;;1.80;;
78589;SDS011;67888;50.228;7.828;2023-09-19T23:24:43;7.65;;;1.70;;
78589;SDS011;67888;50.228;7.828;2023-09-19T23:29:49;5.45;;;1.92;;
78589;SDS011;67888;50.228;7.828;2023-09-19T23:34:54;5.87;;;1.67;;
78589;SDS011;67888;50.228;7.828;2023-09-19T23:39:56;7.53;;;2.00;;
78589;SDS011;67888;50.228;7.828;2023-09-19T23:44:57;7.45;;;1.92;;
78589;SDS011;67888;50.228;7.828;2023-09-19T23:49:57;4.57;;;1.80;;
78589;SDS011;67888;50.228;7.828;2023-09-19T23:54:58;8.13;;;1.80;;
78589;SDS011;67888;50.228;7.828;2023-09-19T23:59:59;8.82;;;2.53;;
